Time;durP1;ratioP1;P1;durP2;ratioP2;P2;SDS_P1;SDS_P2;PMS_P1;PMS_P2;Temp;Humidity;BMP_temperature;BMP_pressure;BME280_temperature;BME280_humidity;BME280_pressure;Samples;Min_cycle;Max_cycle;Signal;HPM_P1;HPM_P2
2022/05/03 00:01:42;;;;;;;3.13;2.83;;;15.20;37.60;;;13.10;40.81;101239.28;12235424;19;20036;-84
2022/05/03 00:06:57;;;;;;;4.07;3.42;;;15.20;37.90;;;13.03;40.58;101227.44;12236561;19;20022;-84
2022/05/03 00:11:52;;;;;;;4.13;3.72;;;15.20;38.00;;;13.15;40.75;101263.47;12229826;19;20021;-83
2022/05/03 00:15:57;;;;;;;4.07;3.58;;;15.20;38.10;;;13.10;40.67;101265.50;12235498;19;20018;-83
2022/05/03 00:19:59;;;;;;;4.75;3.80;;;15.10;37.90;;;12.99;40.81;101239.03;12234381;19;20010;-82
2022/05/03 00:24:02;;;;;;;3.40;3.10;;;15.10;38.00;;;12.88;40.86;101225.69;12235171;19;20086;-83
2022/05/03 00:28:04;;;;;;;3.53;3.22;;;15.10;38.00;;;12.93;40.76;101237.59;12240036;19;20063;-84
2022/05/03 00:32:06;;;;;;;3.60;3.30;;;15.10;38.00;;;12.71;41.04;101231.88;12239177;19;20097;-83
2022/05/03 00:36:08;;;;;;;3.70;3.35;;;15.10;38.10;;;12.53;41.41;101238.97;12239250;19;20011;-84
2022/05/03 00:40:11;;;;;;;6.72;3.33;;;14.90;38.00;;;12.18;41.68;101197.25;12241693;19;20074;-84
2022/05/03 00:44:58;;;;;;;3.33;3.03;;;14.90;38.10;;;12.36;41.73;101238.13;12236901;19;20015;-83
2022/05/03 00:49:30;;;;;;;3.33;3.03;;;14.80;38.60;;;12.40;42.06;101241.44;12240346;19;20014;-84
2022/05/03 00:53:38;;;;;;;3.13;2.72;;;14.70;38.40;;;12.24;41.72;101217.84;12233172;19;20014;-84
2022/05/03 00:58:08;;;;;;;3.42;3.13;;;14.60;38.40;;;12.27;41.85;101216.84;12232204;19;20006;-83
2022/05/03 01:02:13;;;;;;;2.78;2.58;;;14.60;38.70;;;12.16;41.89;101206.97;12231758;19;20486;-83
2022/05/03 01:06:57;;;;;;;2.55;2.35;;;14.60;38.80;;;12.33;41.87;101212.09;12228713;19;20507;-83
2022/05/03 01:11:22;;;;;;;2.65;2.45;;;14.60;39.10;;;12.28;42.21;101198.41;12236241;19;20026;-83
2022/05/03 01:15:29;;;;;;;2.88;2.67;;;14.50;39.20;;;12.33;42.09;101214.72;12234388;19;20029;-83
2022/05/03 01:20:03;;;;;;;2.92;2.70;;;14.50;39.00;;;12.47;42.10;101228.84;12238983;19;20412;-84
2022/05/03 01:25:05;;;;;;;3.20;2.80;;;14.60;39.80;;;12.48;42.01;101217.44;12237385;19;20026;-84
2022/05/03 01:29:27;;;;;;;4.13;3.03;;;14.60;39.40;;;12.28;42.45;101192.34;12239714;19;20011;-84
2022/05/03 01:33:42;;;;;;;2.92;2.72;;;14.60;39.30;;;12.15;42.57;101202.63;12235624;19;20050;-84
2022/05/03 01:38:14;;;;;;;2.80;2.60;;;14.40;39.30;;;12.25;42.88;101206.44;12237135;19;20403;-83
2022/05/03 01:42:35;;;;;;;2.90;2.67;;;14.50;39.40;;;12.23;42.87;101192.59;12238297;19;20304;-83
2022/05/03 01:46:37;;;;;;;3.35;3.05;;;14.50;39.50;;;12.10;42.36;101178.50;12234751;19;20543;-83
2022/05/03 01:50:58;;;;;;;4.78;2.88;;;14.50;39.40;;;12.24;42.79;101202.16;12236317;19;20789;-83
2022/05/03 01:55:23;;;;;;;3.55;3.22;;;14.40;39.70;;;12.24;43.05;101204.75;12226895;19;20131;-83
2022/05/03 01:59:35;;;;;;;3.40;3.00;;;14.40;39.70;;;12.28;42.82;101203.66;12238561;19;20023;-82
2022/05/03 02:03:48;;;;;;;3.55;3.25;;;14.30;39.50;;;12.26;43.08;101191.56;12233285;19;20010;-83
2022/05/03 02:07:57;;;;;;;3.95;3.08;;;14.50;39.70;;;12.35;42.85;101194.53;12235871;19;20038;-82
2022/05/03 02:12:13;;;;;;;4.13;3.42;;;14.50;39.80;;;12.46;43.11;101208.84;12233698;19;20595;-83
2022/05/03 02:16:15;;;;;;;3.95;3.47;;;14.50;39.70;;;12.48;42.85;101209.59;12236168;19;20011;-82
2022/05/03 02:20:46;;;;;;;5.35;3.35;;;14.50;39.60;;;12.50;43.15;101205.09;12234146;19;20011;-82
2022/05/03 02:25:27;;;;;;;3.05;2.75;;;14.50;39.80;;;12.49;42.98;101200.78;12234177;19;20028;-82
2022/05/03 02:29:44;;;;;;;3.42;3.10;;;14.60;40.00;;;12.45;43.06;101194.91;12235319;19;20026;-83
2022/05/03 02:34:06;;;;;;;3.65;3.05;;;14.50;39.80;;;12.52;43.27;101211.09;12232539;19;20007;-82
2022/05/03 02:38:10;;;;;;;3.55;2.83;;;14.60;39.90;;;11.97;42.83;101132.97;12235158;19;20007;-83
2022/05/03 02:42:13;;;;;;;5.28;3.08;;;14.40;39.60;;;12.28;43.20;101195.81;12230432;19;20026;-82
2022/05/03 02:46:56;;;;;;;3.28;2.97;;;14.50;39.70;;;12.43;43.32;101211.63;12227370;19;20078;-83
2022/05/03 02:51:04;;;;;;;3.72;3.28;;;14.50;40.00;;;12.31;43.37;101207.88;12238918;19;20018;-82
2022/05/03 02:55:48;;;;;;;3.03;2.72;;;14.50;39.80;;;12.42;43.41;101217.78;12234335;19;20026;-83
2022/05/03 03:04:46;;;;;;;;;;;14.50;39.90;;;12.38;42.69;101230.19;12232788;19;20376;-82
2022/05/03 03:08:52;;;;;;;3.50;2.13;;;14.50;39.10;;;12.17;43.20;101212.09;12242334;19;19936;-82
2022/05/03 03:13:11;;;;;;;6.47;2.53;;;14.40;39.40;;;12.10;43.40;101205.50;12240884;19;20032;-82
2022/05/03 03:17:20;;;;;;;4.10;2.75;;;14.40;39.70;;;12.11;43.08;101201.97;12243117;19;20019;-82
2022/05/03 03:21:32;;;;;;;3.10;2.80;;;14.30;39.60;;;12.15;43.43;101219.22;12243683;19;20091;-82
2022/05/03 03:25:37;;;;;;;3.53;3.22;;;14.10;39.50;;;11.74;43.38;101158.56;12243015;19;20344;-82
2022/05/03 03:29:40;;;;;;;3.73;3.17;;;14.30;39.60;;;12.05;43.44;101217.16;12243811;19;20013;-83
2022/05/03 03:33:43;;;;;;;4.75;3.15;;;14.30;39.50;;;11.92;43.43;101217.81;12235535;19;20014;-82
2022/05/03 03:37:48;;;;;;;3.75;3.28;;;14.30;39.50;;;11.87;43.67;101224.22;12241690;19;20015;-82
2022/05/03 03:41:49;;;;;;;4.38;3.00;;;14.20;39.60;;;11.86;43.54;101218.13;12236290;19;20539;-83
2022/05/03 03:45:51;;;;;;;3.70;2.80;;;14.10;39.50;;;11.75;43.44;101209.97;12234329;19;20387;-82
2022/05/03 03:49:53;;;;;;;4.60;3.03;;;14.10;39.60;;;11.74;43.66;101208.25;12233577;19;21099;-82
2022/05/03 03:53:55;;;;;;;4.38;3.53;;;14.10;39.70;;;11.78;43.50;101212.44;12229048;19;20036;-82
2022/05/03 03:57:58;;;;;;;2.95;2.72;;;14.00;39.70;;;11.83;43.42;101228.75;12235554;19;20023;-82
2022/05/03 04:02:01;;;;;;;3.70;2.67;;;13.90;39.70;;;11.75;43.64;101228.28;12237250;19;20018;-81
2022/05/03 04:06:03;;;;;;;3.45;2.72;;;13.90;39.80;;;11.76;43.77;101232.59;12238088;19;20492;-82
2022/05/03 04:10:06;;;;;;;3.92;2.75;;;13.90;39.80;;;11.63;43.75;101221.91;12227603;19;20014;-82
2022/05/03 04:14:07;;;;;;;3.08;2.78;;;13.90;39.80;;;11.72;43.75;101245.00;12229953;19;20014;-83
2022/05/03 04:18:10;;;;;;;3.55;3.13;;;13.80;39.90;;;11.54;43.73;101221.56;12233267;19;20015;-83
2022/05/03 04:22:29;;;;;;;3.30;2.83;;;13.90;39.90;;;11.70;44.20;101244.22;12236549;19;20071;-83
2022/05/03 04:26:30;;;;;;;2.78;2.53;;;13.80;40.30;;;11.53;43.85;101223.31;12239207;19;20006;-83
2022/05/03 04:30:32;;;;;;;3.20;2.63;;;13.80;39.90;;;11.50;43.86;101226.94;12237491;19;20021;-83
2022/05/03 04:34:33;;;;;;;4.00;2.78;;;13.90;40.10;;;11.43;43.91;101225.56;12231402;19;20006;-84
2022/05/03 04:38:35;;;;;;;8.38;3.70;;;13.80;40.00;;;11.46;44.01;101246.31;12232217;19;20082;-83
2022/05/03 04:42:37;;;;;;;3.58;2.78;;;13.80;40.10;;;11.47;44.04;101260.22;12232432;19;20020;-84
2022/05/03 04:46:39;;;;;;;3.25;2.95;;;13.70;40.10;;;11.28;44.12;101234.16;12229005;19;20377;-81
2022/05/03 04:50:41;;;;;;;4.03;2.90;;;13.70;40.10;;;11.39;44.32;101260.59;12232116;19;20084;-83
2022/05/03 04:54:42;;;;;;;3.45;2.88;;;13.60;40.10;;;11.37;44.18;101249.41;12226276;19;20015;-82
2022/05/03 04:58:45;;;;;;;3.28;2.67;;;13.60;40.30;;;11.26;44.38;101236.00;12234167;19;20041;-82
2022/05/03 05:02:46;;;;;;;3.22;2.63;;;13.50;40.40;;;11.50;44.61;101268.78;12231067;19;20014;-83
2022/05/03 05:06:48;;;;;;;12.07;4.88;;;13.60;40.60;;;11.56;44.65;101279.84;12230840;19;20033;-83
2022/05/03 05:10:50;;;;;;;3.17;2.88;;;13.70;40.90;;;11.17;44.73;101210.31;12231090;19;20479;-83
2022/05/03 05:14:52;;;;;;;2.78;2.50;;;13.70;40.90;;;11.76;44.74;101294.53;12229365;19;20081;-82
2022/05/03 05:18:53;;;;;;;2.92;2.67;;;13.50;40.80;;;11.65;44.56;101268.94;12226690;19;20026;-82
2022/05/03 05:22:55;;;;;;;2.58;2.38;;;13.70;40.80;;;11.79;44.49;101282.13;12229441;19;20018;-82
2022/05/03 05:26:57;;;;;;;5.57;2.47;;;13.90;40.80;;;11.78;44.42;101269.16;12232495;19;20090;-82
2022/05/03 05:30:58;;;;;;;5.70;2.25;;;14.00;40.90;;;11.71;44.57;101240.66;12231596;19;20017;-82
2022/05/03 05:35:00;;;;;;;2.83;2.53;;;13.90;40.90;;;12.05;44.73;101280.84;12228189;19;20032;-83
2022/05/03 05:39:02;;;;;;;2.88;2.67;;;14.20;41.10;;;12.00;44.69;101264.53;12231136;19;20122;-81
2022/05/03 05:43:03;;;;;;;3.17;2.83;;;14.10;41.10;;;12.27;44.83;101295.41;12230873;19;20017;-80
2022/05/03 05:47:05;;;;;;;2.67;2.47;;;14.30;41.00;;;12.21;44.89;101278.25;12229543;19;20043;-79
2022/05/03 05:51:07;;;;;;;3.55;2.55;;;14.40;40.90;;;12.39;44.78;101303.47;12231223;19;20055;-80
2022/05/03 05:55:11;;;;;;;2.75;2.47;;;14.40;40.90;;;12.42;44.76;101294.56;12227720;19;20369;-80
2022/05/03 05:59:13;;;;;;;2.97;2.67;;;14.50;40.90;;;12.21;44.84;101254.69;12229934;19;20075;-80
2022/05/03 06:03:16;;;;;;;2.63;2.42;;;14.60;41.00;;;12.40;44.92;101284.19;12226024;19;20010;-80
2022/05/03 06:07:18;;;;;;;2.67;2.17;;;14.50;40.90;;;12.47;44.74;101291.72;12229422;19;20098;-80
2022/05/03 06:11:19;;;;;;;2.67;2.47;;;14.50;40.80;;;12.64;44.84;101310.00;12225678;19;20418;-80
2022/05/03 06:15:21;;;;;;;3.35;2.20;;;14.70;40.90;;;12.72;44.86;101312.19;12227149;19;20487;-84
2022/05/03 06:19:23;;;;;;;4.57;2.10;;;14.80;40.90;;;12.69;44.99;101286.13;12227229;19;20092;-82
2022/05/03 06:23:25;;;;;;;3.97;2.20;;;14.90;41.10;;;12.78;45.00;101290.91;12230610;19;20025;-82
2022/05/03 06:27:27;;;;;;;2.58;2.38;;;15.30;41.30;;;13.02;44.97;101312.28;12241342;19;20018;-82
2022/05/03 06:31:29;;;;;;;2.28;2.08;;;15.00;41.20;;;13.15;45.04;101308.03;12242785;19;20019;-82
2022/05/03 06:35:31;;;;;;;2.38;2.17;;;15.10;41.00;;;13.32;44.55;101314.97;12243281;19;20014;-83
2022/05/03 06:39:36;;;;;;;2.30;2.03;;;15.20;40.60;;;13.18;44.81;101272.94;12243310;19;20074;-81
2022/05/03 06:43:37;;;;;;;1.90;1.67;;;15.40;40.80;;;13.35;44.70;101274.59;12242072;19;20287;-82
2022/05/03 06:47:40;;;;;;;2.63;2.00;;;15.30;40.50;;;13.56;44.52;101294.34;12243172;19;20026;-84
2022/05/03 06:51:41;;;;;;;2.28;1.95;;;15.60;40.30;;;13.81;44.41;101319.13;12240159;19;20015;-82
2022/05/03 06:55:43;;;;;;;2.75;2.05;;;15.70;40.20;;;13.82;44.36;101297.19;12242743;19;20460;-84
2022/05/03 06:59:45;;;;;;;1.98;1.77;;;15.80;40.00;;;13.72;44.29;101276.75;12240390;19;20028;-83
2022/05/03 07:03:47;;;;;;;5.45;1.73;;;16.00;40.00;;;14.08;44.22;101321.91;12236819;19;20480;-83
2022/05/03 07:07:48;;;;;;;1.92;1.83;;;16.10;39.80;;;14.11;43.89;101317.28;12240521;19;20480;-83
2022/05/03 07:11:51;;;;;;;2.55;1.58;;;16.20;39.80;;;14.03;44.05;101293.28;12239040;19;20520;-83
2022/05/03 07:15:57;;;;;;;5.25;1.85;;;16.30;39.60;;;14.37;43.93;101328.84;12239967;19;20023;-83
2022/05/03 07:24:19;;;;;;;1.67;1.58;;;16.50;39.20;;;14.64;43.54;101328.13;12236566;19;20018;-85
2022/05/03 07:28:21;;;;;;;2.90;1.55;;;16.60;39.00;;;14.87;43.43;101339.78;12239288;19;20374;-83
2022/05/03 07:32:22;;;;;;;2.20;1.38;;;16.70;38.90;;;14.95;43.32;101327.00;12237713;19;20019;-85
2022/05/03 07:36:27;;;;;;;6.03;1.27;;;16.70;38.70;;;15.28;43.09;101341.53;12239363;19;20473;-84
2022/05/03 07:40:29;;;;;;;6.43;0.97;;;17.00;38.20;;;15.40;42.82;101332.03;12239454;19;20018;-83
2022/05/03 07:44:31;;;;;;;1.17;1.00;;;17.20;38.20;;;15.46;42.78;101326.34;12236496;19;20732;-84
2022/05/03 07:48:32;;;;;;;0.80;0.70;;;17.40;38.10;;;15.73;42.39;101347.41;12240226;19;20014;-83
2022/05/03 07:52:39;;;;;;;0.85;0.77;;;17.60;38.10;;;15.55;42.30;101295.94;12229222;19;20493;-85
2022/05/03 07:56:41;;;;;;;2.15;0.90;;;17.70;37.60;;;16.03;42.37;101346.28;12236876;19;20014;-85
2022/05/03 08:00:42;;;;;;;1.77;0.90;;;17.90;37.50;;;16.26;42.14;101355.25;12236498;19;20010;-83
2022/05/03 08:04:44;;;;;;;0.80;0.80;;;18.00;37.30;;;16.19;42.03;101310.00;12233289;19;20173;-83
2022/05/03 08:08:45;;;;;;;0.65;0.65;;;18.10;37.40;;;16.62;41.92;101348.34;12236641;19;20035;-84
2022/05/03 08:12:51;;;;;;;1.63;0.90;;;18.40;37.10;;;16.93;41.90;101366.34;12229699;19;20031;-83
2022/05/03 08:16:52;;;;;;;0.68;0.68;;;18.60;37.20;;;17.19;41.39;101369.72;12232948;19;20353;-83
2022/05/03 08:20:54;;;;;;;1.10;1.02;;;18.80;36.70;;;17.28;41.27;101364.72;12235239;19;20022;-84
2022/05/03 08:24:56;;;;;;;1.20;1.10;;;18.90;36.80;;;17.48;40.96;101350.91;12232524;19;20021;-83
2022/05/03 08:28:57;;;;;;;2.03;1.48;;;19.20;36.50;;;17.74;40.98;101372.75;12232664;19;20031;-83
2022/05/03 08:32:59;;;;;;;1.20;0.98;;;19.50;36.30;;;17.95;40.94;101374.75;12234009;19;20015;-84
2022/05/03 08:45:49;;;;;;;1.50;1.35;;;19.90;35.80;;;18.27;40.18;101353.78;12233551;19;20053;-84
2022/05/03 08:50:04;;;;;;;1.63;1.23;;;20.10;35.70;;;18.21;39.70;101328.66;12234159;19;20016;-84
2022/05/03 08:54:05;;;;;;;2.63;1.52;;;20.20;35.20;;;18.33;39.97;101342.72;12230324;19;20094;-84
2022/05/03 08:58:07;;;;;;;3.83;1.55;;;20.30;35.50;;;18.57;39.76;101361.94;12233754;19;20035;-83
2022/05/03 09:02:10;;;;;;;1.75;1.48;;;20.30;35.20;;;18.79;39.83;101376.16;12228157;19;20054;-84
2022/05/03 09:06:12;;;;;;;1.90;1.38;;;20.50;35.20;;;18.86;39.79;101361.47;12230474;19;20010;-83
2022/05/03 09:10:21;;;;;;;3.17;1.80;;;20.80;35.20;;;18.90;39.41;101341.75;12232972;19;20486;-84
2022/05/03 09:14:42;;;;;;;1.95;1.10;;;20.80;35.00;;;19.17;38.97;101356.34;12229861;19;20022;-85
2022/05/03 09:18:45;;;;;;;1.50;1.40;;;20.80;34.70;;;19.23;38.94;101343.44;12232361;19;20021;-84
2022/05/03 09:27:20;;;;;;;1.75;1.50;;;21.10;34.30;;;19.53;38.89;101354.31;12228723;19;20031;-84
2022/05/03 09:31:47;;;;;;;2.97;2.03;;;21.40;34.50;;;19.57;38.26;101345.94;12229715;19;20022;-86
2022/05/03 09:35:50;;;;;;;1.30;1.20;;;21.40;33.80;;;19.68;38.59;101353.03;12231963;19;20010;-86
2022/05/03 09:39:52;;;;;;;4.18;1.45;;;21.50;34.40;;;19.75;38.60;101337.47;12230455;19;20014;-84
2022/05/03 09:44:04;;;;;;;1.90;1.55;;;21.80;34.00;;;19.96;37.75;101354.22;12230445;19;20732;-87
2022/05/03 09:48:06;;;;;;;1.48;1.38;;;21.70;33.80;;;20.00;37.90;101345.00;12228457;19;20078;-85
2022/05/03 09:52:29;;;;;;;1.70;1.60;;;21.90;34.00;;;20.13;37.55;101354.59;12231454;19;20015;-87
2022/05/03 09:56:35;;;;;;;3.22;1.30;;;21.90;33.50;;;20.19;37.93;101348.75;12230389;19;20015;-87
2022/05/03 10:00:40;;;;;;;4.85;1.50;;;22.00;33.60;;;20.28;37.79;101335.53;12245016;19;20007;-86
2022/05/03 10:04:47;;;;;;;2.65;1.17;;;21.90;33.50;;;20.38;37.44;101319.66;12239872;19;20006;-86
2022/05/03 10:08:49;;;;;;;2.20;1.33;;;22.10;33.30;;;20.37;37.45;101307.38;12244545;19;20015;-86
2022/05/03 10:12:51;;;;;;;1.92;1.23;;;22.30;33.10;;;20.46;37.26;101316.31;12241864;19;20081;-86
2022/05/03 10:21:19;;;;;;;1.67;1.48;;;22.20;32.80;;;20.69;36.59;101317.00;12243940;19;20385;-85
2022/05/03 10:25:47;;;;;;;1.52;1.30;;;22.90;33.20;;;20.87;36.64;101325.97;12242994;19;20022;-87
2022/05/03 10:30:17;;;;;;;2.50;1.60;;;22.60;32.70;;;20.99;36.26;101329.34;12246795;19;20007;-89
2022/05/03 10:34:53;;;;;;;1.67;1.58;;;22.70;32.70;;;21.08;36.12;101320.53;12239898;19;20014;-87
2022/05/03 10:39:05;;;;;;;2.03;1.10;;;22.80;32.70;;;21.06;36.29;101298.59;12244520;19;20044;-89
2022/05/03 10:43:14;;;;;;;1.27;1.17;;;22.80;32.50;;;21.21;35.77;101313.13;12241738;19;20025;-88
2022/05/03 10:47:52;;;;;;;2.17;1.10;;;22.90;32.20;;;21.37;35.80;101322.38;12241984;19;20031;-86
2022/05/03 10:51:54;;;;;;;1.77;1.55;;;23.10;32.40;;;21.46;36.37;101316.25;12242616;19;20609;-86
2022/05/03 10:56:18;;;;;;;1.88;1.33;;;23.10;32.40;;;21.53;35.59;101304.06;12244335;19;20021;-87
2022/05/03 11:01:05;;;;;;;2.03;1.60;;;23.30;32.50;;;21.59;35.65;101316.78;12242324;19;20467;-86
2022/05/03 11:05:15;;;;;;;;;;;23.40;31.50;;;21.47;36.20;101286.06;12238648;19;20014;-88
2022/05/03 11:09:28;;;;;;;5.82;1.33;;;23.40;33.10;;;21.58;35.53;101287.72;12235203;19;20400;-87
2022/05/03 11:13:41;;;;;;;2.35;1.50;;;23.40;31.70;;;21.61;35.37;101304.19;12238334;19;20019;-87
2022/05/03 11:17:43;;;;;;;1.48;1.33;;;23.40;31.70;;;21.54;35.36;101286.31;12239829;19;20010;-87
2022/05/03 11:21:47;;;;;;;1.83;1.30;;;23.40;32.00;;;21.58;35.33;101290.38;12240761;19;20010;-87
2022/05/03 11:25:48;;;;;;;2.30;1.42;;;23.50;31.70;;;21.60;34.95;101286.59;12240742;19;20017;-87
2022/05/03 11:30:00;;;;;;;4.82;1.50;;;23.40;31.20;;;21.71;34.49;101287.38;12241042;19;20069;-86
2022/05/03 11:34:06;;;;;;;1.33;1.23;;;23.50;31.50;;;21.72;34.68;101268.66;12237078;19;20015;-87
2022/05/03 11:38:11;;;;;;;1.90;1.38;;;23.50;31.50;;;21.79;34.77;101264.44;12239208;19;20022;-87
2022/05/03 11:42:13;;;;;;;;;;;23.80;31.40;;;21.78;35.13;101262.75;12238100;19;20018;-86
2022/05/03 11:46:16;;;;;;;1.10;1.00;;;23.60;32.40;;;21.92;34.52;101284.53;12240266;19;19915;-88
2022/05/03 11:59:15;;;;;;;0.90;0.90;;;23.70;31.10;;;21.95;34.17;101242.53;12239322;19;20027;-87
2022/05/03 12:03:17;;;;;;;2.15;0.90;;;23.80;31.10;;;22.12;34.24;101272.84;12238863;19;20382;-87
2022/05/03 12:07:22;;;;;;;1.10;1.00;;;23.90;30.90;;;21.97;33.34;101250.38;12238117;19;20056;-87
2022/05/03 12:11:24;;;;;;;0.70;0.70;;;23.80;30.20;;;22.02;33.91;101262.25;12239443;19;20010;-87
2022/05/03 12:15:25;;;;;;;2.13;0.90;;;23.90;30.50;;;22.02;33.58;101269.38;12236147;19;20505;-87
2022/05/03 12:19:36;;;;;;;0.80;0.80;;;23.80;30.40;;;22.02;33.34;101250.78;12237495;19;20014;-85
2022/05/03 12:23:45;;;;;;;1.50;0.80;;;23.90;30.30;;;22.11;33.19;101257.84;12232918;19;20014;-86
2022/05/03 12:27:49;;;;;;;2.65;0.85;;;23.90;30.50;;;22.15;33.61;101251.28;12237626;19;20025;-88
2022/05/03 12:31:52;;;;;;;0.93;0.90;;;23.90;30.50;;;22.20;33.43;101253.53;12235795;19;20097;-89
2022/05/03 12:35:53;;;;;;;1.40;0.85;;;24.00;30.50;;;22.18;33.43;101237.69;12239103;19;20035;-89
2022/05/03 12:40:02;;;;;;;1.15;0.60;;;24.00;30.50;;;22.19;33.08;101223.41;12235471;19;20018;-86
2022/05/03 12:44:10;;;;;;;0.90;0.88;;;24.00;30.20;;;22.27;32.61;101225.31;12234742;19;20026;-89
2022/05/03 12:48:12;;;;;;;1.23;0.82;;;24.10;30.30;;;22.27;32.81;101234.13;12234980;19;20025;-87
2022/05/03 12:52:14;;;;;;;1.00;0.70;;;24.10;30.00;;;22.25;32.93;101224.63;12235234;19;20018;-86
2022/05/03 13:00:39;;;;;;;0.45;0.45;;;24.10;30.00;;;22.38;32.76;101230.44;12235906;19;20047;-88
2022/05/03 13:04:40;;;;;;;0.70;0.70;;;24.20;30.00;;;22.30;32.40;101230.34;12234895;19;20099;-86
2022/05/03 13:08:42;;;;;;;0.52;0.52;;;24.10;29.90;;;22.19;32.32;101210.09;12235097;19;20468;-88
2022/05/03 13:12:43;;;;;;;0.60;0.60;;;24.10;29.70;;;22.14;32.52;101216.81;12237452;19;20002;-93
2022/05/03 13:16:45;;;;;;;2.15;0.90;;;24.10;29.90;;;22.05;32.50;101189.28;12238418;19;20011;-91
2022/05/03 13:20:47;;;;;;;0.50;0.50;;;24.10;30.00;;;22.03;32.58;101170.81;12240274;19;20018;-90
2022/05/03 13:24:49;;;;;;;0.40;0.40;;;24.10;30.00;;;22.31;32.51;101206.25;12236513;19;20052;-91
2022/05/03 13:28:53;;;;;;;0.40;0.40;;;24.00;30.00;;;22.27;32.42;101175.59;12235946;19;20069;-90
2022/05/03 13:32:54;;;;;;;4.03;0.65;;;24.20;30.00;;;22.38;32.09;101200.34;12235111;19;20039;-88
2022/05/03 13:41:17;;;;;;;0.38;0.38;;;24.20;30.00;;;22.31;32.12;101200.09;12221438;19;20057;-87
2022/05/03 13:45:19;;;;;;;0.93;0.40;;;24.30;29.90;;;22.31;32.12;101206.25;12223380;19;20431;-87
2022/05/03 13:49:21;;;;;;;0.40;0.40;;;24.10;30.00;;;22.37;32.17;101211.97;12221868;19;20007;-87
2022/05/03 13:53:22;;;;;;;0.35;0.35;;;24.10;29.90;;;22.40;32.20;101203.69;12226087;19;20025;-88
2022/05/03 13:57:24;;;;;;;0.40;0.40;;;24.30;30.00;;;22.40;31.97;101204.53;12227932;19;20018;-90
2022/05/03 14:01:26;;;;;;;0.40;0.40;;;24.20;30.00;;;22.31;32.13;101200.94;12232742;19;20022;-89
2022/05/03 14:05:28;;;;;;;0.50;0.50;;;24.20;30.00;;;22.19;32.09;101198.63;12229661;19;20078;-89
2022/05/03 14:09:30;;;;;;;0.30;0.30;;;24.20;30.00;;;22.12;31.89;101197.53;12234707;19;20015;-89
2022/05/03 14:13:32;;;;;;;0.40;0.40;;;24.10;29.90;;;21.97;31.67;101181.22;12231499;19;20014;-89
2022/05/03 14:17:34;;;;;;;0.60;0.50;;;23.90;29.90;;;22.06;31.81;101205.13;12233034;19;20007;-89
2022/05/03 14:21:36;;;;;;;0.30;0.30;;;24.00;30.00;;;22.00;31.73;101202.19;12227255;19;20099;-88
2022/05/03 14:25:38;;;;;;;0.50;0.50;;;23.80;30.00;;;21.98;31.95;101217.47;12228866;19;20407;-88
2022/05/03 14:29:39;;;;;;;2.05;0.43;;;23.80;30.00;;;21.93;32.08;101211.75;12228568;19;20035;-87
2022/05/03 14:33:41;;;;;;;6.72;0.98;;;23.80;30.10;;;21.74;31.93;101189.59;12227407;19;20019;-88
2022/05/03 14:37:43;;;;;;;0.63;0.63;;;23.70;30.00;;;21.76;32.10;101208.88;12231251;19;20010;-88
2022/05/03 14:41:45;;;;;;;0.57;0.57;;;23.70;30.10;;;21.67;32.11;101190.31;12227962;19;20015;-88
2022/05/03 14:45:48;;;;;;;1.27;0.70;;;23.60;30.20;;;21.65;32.33;101182.47;12235199;19;20013;-87
2022/05/03 14:49:49;;;;;;;0.50;0.50;;;23.60;30.50;;;21.73;31.96;101179.91;12240758;19;20357;-88
2022/05/03 14:53:50;;;;;;;0.77;0.77;;;23.50;30.50;;;21.93;32.24;101204.63;12239652;19;20022;-88
2022/05/03 15:06:40;;;;;;;2.15;0.73;;;23.60;30.40;;;21.97;32.24;101207.81;12241457;19;20386;-87
2022/05/03 15:10:42;;;;;;;0.95;0.57;;;23.70;30.60;;;21.90;32.13;101194.28;12238521;19;20482;-88
2022/05/03 15:14:44;;;;;;;0.60;0.60;;;23.70;30.60;;;21.79;32.32;101170.50;12236775;19;20019;-88
2022/05/03 15:18:45;;;;;;;0.70;0.70;;;23.70;30.70;;;22.06;32.15;101207.78;12238751;19;20011;-88
2022/05/03 15:27:11;;;;;;;2.65;0.63;;;23.70;30.80;;;21.94;32.46;101189.50;12237819;19;20029;-87
2022/05/03 15:31:12;;;;;;;1.05;0.93;;;23.80;30.80;;;21.87;32.46;101191.88;12240398;19;20071;-87
2022/05/03 15:35:14;;;;;;;1.02;0.93;;;23.60;30.80;;;21.86;32.48;101200.88;12239306;19;20018;-86
2022/05/03 15:39:16;;;;;;;0.80;0.80;;;23.60;30.80;;;21.71;32.58;101186.38;12241985;19;20011;-86
2022/05/03 15:43:19;;;;;;;0.85;0.85;;;23.70;30.90;;;21.70;32.78;101201.47;12236071;19;20035;-85
2022/05/03 15:47:32;;;;;;;2.20;1.10;;;23.60;31.00;;;21.64;32.42;101200.25;12240079;19;20024;-87
2022/05/03 15:51:34;;;;;;;0.75;0.75;;;23.50;31.10;;;21.52;32.76;101197.91;12243162;19;20022;-86
2022/05/03 15:55:36;;;;;;;0.77;0.60;;;23.50;31.20;;;21.52;33.00;101193.44;12241588;19;20456;-86
2022/05/03 15:59:38;;;;;;;1.85;0.82;;;23.40;31.30;;;21.29;33.20;101165.50;12246614;19;20013;-86
2022/05/03 16:03:39;;;;;;;0.68;0.68;;;23.40;31.20;;;21.39;32.90;101193.75;12242062;19;20496;-86
2022/05/03 16:07:41;;;;;;;4.47;0.60;;;23.30;31.20;;;21.04;33.20;101135.09;12251055;19;20035;-87
2022/05/03 16:11:43;;;;;;;1.38;0.80;;;23.30;31.40;;;21.16;32.84;101168.44;12239372;19;20022;-85
2022/05/03 16:15:45;;;;;;;0.82;0.82;;;23.20;31.50;;;21.27;32.86;101204.66;12236404;19;20003;-83
2022/05/03 16:19:46;;;;;;;2.15;0.80;;;23.20;31.50;;;21.14;32.79;101204.94;12240271;19;20018;-82
2022/05/03 16:23:48;;;;;;;1.08;0.80;;;23.20;31.50;;;20.94;33.13;101166.94;12237064;19;20092;-82
2022/05/03 16:27:50;;;;;;;1.02;0.93;;;23.10;31.60;;;21.02;33.09;101185.66;12239698;19;20010;-82
2022/05/03 16:31:52;;;;;;;0.80;0.80;;;22.90;31.50;;;21.11;33.07;101195.44;12238102;19;20018;-82
2022/05/03 16:42:07;;;;;;;1.27;0.90;;;22.90;31.80;;;21.13;32.99;101193.47;12238435;19;20081;-81
2022/05/03 16:44:45;;;;;;;2.55;0.93;;;22.90;31.50;;;21.00;33.13;101177.00;12229772;19;20011;-82
2022/05/03 16:48:46;;;;;;;0.70;0.70;;;22.90;31.70;;;21.02;32.97;101185.66;12230537;19;20028;-82
2022/05/03 16:52:48;;;;;;;0.88;0.88;;;23.00;31.70;;;20.97;33.44;101187.91;12237260;19;20362;-83
2022/05/03 16:56:50;;;;;;;0.82;0.82;;;22.80;31.70;;;20.81;33.47;101177.84;12240544;19;20014;-84
2022/05/03 17:00:52;;;;;;;0.63;0.60;;;22.80;31.80;;;20.66;33.22;101166.84;12238213;19;20015;-83
2022/05/03 17:04:56;;;;;;;1.67;0.80;;;22.70;31.80;;;20.71;33.42;101199.09;12236350;19;20018;-83
2022/05/03 17:08:58;;;;;;;0.85;0.85;;;22.60;31.90;;;20.73;33.79;101197.13;12235566;19;20483;-83
2022/05/03 17:13:00;;;;;;;0.88;0.80;;;22.60;32.00;;;20.65;33.61;101186.38;12238227;19;20007;-82
2022/05/03 17:17:01;;;;;;;0.85;0.85;;;22.60;32.00;;;20.51;33.97;101171.66;12235394;19;20050;-84
2022/05/03 17:21:05;;;;;;;3.30;1.40;;;22.60;32.20;;;20.42;33.48;101158.41;12238115;19;20031;-84
2022/05/03 17:25:07;;;;;;;1.10;1.00;;;22.50;32.10;;;20.67;33.63;101202.16;12236104;19;20011;-84
2022/05/03 17:29:09;;;;;;;1.05;1.05;;;22.60;32.20;;;20.65;34.06;101199.63;12238057;19;20024;-83
2022/05/03 17:33:11;;;;;;;3.10;2.20;;;22.40;32.20;;;20.41;33.87;101167.31;12236261;19;20049;-83
2022/05/03 17:37:12;;;;;;;1.42;1.33;;;22.50;32.10;;;20.56;33.77;101205.78;12237660;19;20081;-82
2022/05/03 17:41:16;;;;;;;1.67;1.58;;;22.60;32.30;;;20.40;33.93;101186.88;12239060;19;20010;-82
2022/05/03 17:45:17;;;;;;;2.08;1.23;;;22.40;32.20;;;20.41;34.17;101201.81;12236628;19;20085;-82
2022/05/03 17:49:32;;;;;;;2.30;1.17;;;22.40;32.30;;;20.38;33.68;101191.47;12236263;19;20028;-82
2022/05/03 17:53:53;;;;;;;2.70;1.40;;;22.30;32.30;;;20.39;34.04;101219.66;12235420;19;20592;-84
2022/05/03 17:57:54;;;;;;;1.92;1.50;;;22.30;32.40;;;20.24;34.25;101216.56;12236283;19;20010;-83
2022/05/03 18:01:56;;;;;;;1.45;1.35;;;22.20;32.40;;;20.15;34.26;101212.94;12235460;19;20750;-84